Time;durP1;ratioP1;P1;durP2;ratioP2;P2;SDS_P1;SDS_P2;PMS_P1;PMS_P2;Temp;Humidity;BMP_temperature;BMP_pressure;BME280_temperature;BME280_humidity;BME280_pressure;Samples;Min_cycle;Max_cycle;Signal;HPM_P1;HPM_P2
2021/07/26 00:00:53;;;;;;;22.13;14.60;;;;;;;19.89;80.16;101598.09;1843437;77;21538;-79
2021/07/26 00:03:20;;;;;;;26.50;15.88;;;;;;;19.92;80.54;101600.45;1843305;77;20981;-79
2021/07/26 00:05:57;;;;;;;26.35;15.70;;;;;;;19.93;80.42;101593.39;1843167;77;21759;-79
2021/07/26 00:08:26;;;;;;;27.85;15.00;;;;;;;19.93;80.13;101599.49;1843134;77;20938;-77
2021/07/26 00:11:03;;;;;;;22.30;15.08;;;;;;;19.91;79.81;101599.29;1843617;77;20917;-77
2021/07/26 00:13:33;;;;;;;26.55;15.93;;;;;;;19.89;79.72;101598.58;1843437;77;20956;-78
2021/07/26 00:16:01;;;;;;;22.98;14.80;;;;;;;19.88;79.89;101603.48;1843271;77;20917;-77
2021/07/26 00:18:28;;;;;;;21.27;14.43;;;;;;;19.89;80.08;101599.89;1843300;77;21794;-76
2021/07/26 00:20:56;;;;;;;26.90;15.90;;;;;;;19.92;79.95;101599.14;1842908;77;20881;-75
2021/07/26 00:23:26;;;;;;;25.90;16.37;;;;;;;19.92;79.70;101601.77;1843130;77;32475;-75
2021/07/26 00:25:52;;;;;;;26.23;14.58;;;;;;;19.89;79.52;101603.84;1843355;77;20932;-73
2021/07/26 00:28:21;;;;;;;24.67;14.05;;;;;;;19.82;79.60;101602.73;1843063;77;21495;-75
2021/07/26 00:30:47;;;;;;;18.60;13.05;;;;;;;19.78;79.68;101606.63;1843203;77;21125;-77
2021/07/26 00:36:22;;;;;;;21.85;11.85;;;;;;;19.69;79.48;101601.68;1843578;77;20998;-77
2021/07/26 00:38:49;;;;;;;24.82;12.35;;;;;;;19.64;79.66;101602.59;1843422;77;20929;-77
2021/07/26 00:41:18;;;;;;;20.55;12.93;;;;;;;19.64;79.74;101603.06;1843794;77;20987;-78
2021/07/26 00:43:45;;;;;;;22.62;12.68;;;;;;;19.61;79.79;101602.02;1843405;77;21142;-78
2021/07/26 00:46:12;;;;;;;24.07;12.43;;;;;;;19.59;80.05;101602.66;1843157;77;21034;-77
2021/07/26 00:48:39;;;;;;;20.50;11.25;;;;;;;19.54;80.08;101605.20;1842956;77;21012;-77
2021/07/26 00:51:05;;;;;;;19.77;11.75;;;;;;;19.50;80.13;101605.59;1843691;77;20908;-77
2021/07/26 00:53:32;;;;;;;20.75;12.15;;;;;;;19.47;80.24;101605.88;1843315;77;20943;-78
2021/07/26 00:55:59;;;;;;;19.23;12.65;;;;;;;19.43;80.29;101600.05;1843428;77;21862;-77
2021/07/26 00:58:26;;;;;;;17.77;13.30;;;;;;;19.40;80.51;101602.14;1843655;77;20862;-75
2021/07/26 01:00:52;;;;;;;21.57;11.40;;;;;;;19.37;80.58;101599.23;1843303;77;20960;-77
2021/07/26 01:03:19;;;;;;;15.65;9.85;;;;;;;19.34;80.72;101599.51;1843454;77;20941;-77
2021/07/26 01:05:46;;;;;;;19.02;10.10;;;;;;;19.31;80.71;101591.05;1843248;77;21023;-77
2021/07/26 01:08:12;;;;;;;15.38;9.68;;;;;;;19.32;80.95;101590.93;1843353;76;21126;-77
2021/07/26 01:10:39;;;;;;;17.00;9.63;;;;;;;19.35;81.21;101592.45;1819874;77;21011;-78
2021/07/26 01:13:05;;;;;;;17.67;9.58;;;;;;;19.38;81.35;101593.02;1819486;77;21514;-78
2021/07/26 01:15:32;;;;;;;13.10;8.60;;;;;;;19.41;81.72;101591.94;1843516;77;20956;-77
2021/07/26 01:18:31;;;;;;;15.58;7.75;;;;;;;19.46;82.14;101588.44;1843270;77;21513;-75
2021/07/26 01:21:10;;;;;;;15.83;7.80;;;;;;;19.49;82.55;101586.36;1843434;77;21115;-75
2021/07/26 01:23:38;;;;;;;10.00;7.35;;;;;;;19.53;82.98;101585.58;1843192;77;21692;-78
2021/07/26 01:26:08;;;;;;;13.48;7.78;;;;;;;19.56;83.27;101588.45;1843484;77;20964;-75
2021/07/26 01:28:38;;;;;;;13.53;8.30;;;;;;;19.55;83.37;101586.30;1847857;77;20995;-77
2021/07/26 01:31:05;;;;;;;14.58;8.68;;;;;;;19.53;83.14;101586.42;1843362;77;20985;-76
2021/07/26 01:33:32;;;;;;;16.05;8.55;;;;;;;19.52;83.10;101585.25;1843688;77;21550;-77
2021/07/26 01:36:00;;;;;;;14.05;7.97;;;;;;;19.50;83.14;101585.85;1843259;77;20967;-77
2021/07/26 01:38:27;;;;;;;20.85;9.68;;;;;;;19.49;83.38;101586.84;1843484;77;20924;-78
2021/07/26 01:40:54;;;;;;;15.53;9.15;;;;;;;19.46;83.22;101587.92;1843416;77;21361;-77
2021/07/26 01:43:24;;;;;;;14.38;9.13;;;;;;;19.45;83.54;101586.28;1843283;77;21561;-77
2021/07/26 01:46:14;;;;;;;16.15;8.15;;;;;;;19.45;83.85;101586.77;1843385;77;21125;-76
2021/07/26 01:49:09;;;;;;;11.15;7.70;;;;;;;19.42;83.93;101583.92;1842779;77;21507;-77
2021/07/26 01:51:39;;;;;;;17.32;9.08;;;;;;;19.38;83.64;101581.17;1843484;77;20873;-78
2021/07/26 01:54:06;;;;;;;13.48;7.90;;;;;;;19.36;83.73;101582.28;1843378;77;20924;-78
2021/07/26 01:56:32;;;;;;;14.98;8.48;;;;;;;19.34;83.97;101584.20;1843665;77;20869;-78
2021/07/26 01:59:03;;;;;;;11.55;7.55;;;;;;;19.31;84.21;101580.52;1843523;77;21526;-75
2021/07/26 02:01:31;;;;;;;15.18;7.65;;;;;;;19.29;84.47;101583.30;1843459;77;20916;-74
2021/07/26 02:03:57;;;;;;;9.25;7.05;;;;;;;19.29;84.58;101579.83;1843230;77;21419;-75
2021/07/26 02:06:25;;;;;;;12.60;7.40;;;;;;;19.27;84.59;101587.84;1847415;77;21002;-77
2021/07/26 02:08:53;;;;;;;10.70;7.33;;;;;;;19.24;84.70;101576.28;1843962;77;20937;-77
2021/07/26 02:11:23;;;;;;;13.72;7.95;;;;;;;19.24;84.85;101576.78;1846039;77;21213;-75
2021/07/26 02:13:50;;;;;;;13.38;7.60;;;;;;;19.21;84.87;101577.86;1845682;77;20955;-76
2021/07/26 02:16:17;;;;;;;14.45;7.72;;;;;;;19.17;85.01;101580.44;1846072;77;20979;-76
2021/07/26 02:18:44;;;;;;;10.53;8.20;;;;;;;19.16;85.21;101577.45;1846246;77;21383;-77
2021/07/26 02:21:11;;;;;;;12.70;8.35;;;;;;;19.16;85.32;101580.08;1846042;77;20912;-75
2021/07/26 02:23:38;;;;;;;11.57;8.10;;;;;;;19.17;85.26;101580.44;1845981;77;21547;-77
2021/07/26 02:26:05;;;;;;;10.98;7.72;;;;;;;19.17;85.38;101582.23;1846158;77;21451;-77
2021/07/26 02:28:31;;;;;;;17.32;8.00;;;;;;;19.17;85.40;101580.44;1846241;77;20952;-77
2021/07/26 02:30:57;;;;;;;14.07;8.38;;;;;;;19.15;85.39;101584.98;1845861;77;20984;-77
2021/07/26 02:33:24;;;;;;;14.63;8.80;;;;;;;19.14;85.58;101581.19;1845991;77;21430;-77
2021/07/26 02:35:50;;;;;;;16.05;8.90;;;;;;;19.14;85.79;101579.39;1845992;77;21043;-76
2021/07/26 02:38:17;;;;;;;14.87;8.73;;;;;;;19.17;85.85;101580.92;1845877;77;20921;-76
2021/07/26 02:40:45;;;;;;;13.70;8.38;;;;;;;19.17;85.70;101585.70;1846089;77;20912;-77
2021/07/26 02:43:12;;;;;;;9.85;8.35;;;;;;;19.18;85.86;101582.08;1845908;77;21589;-77
2021/07/26 02:45:39;;;;;;;17.95;8.30;;;;;;;19.19;85.70;101590.34;1845848;77;21054;-77
2021/07/26 02:48:06;;;;;;;17.27;8.80;;;;;;;19.18;85.68;101587.34;1845681;77;21778;-76
2021/07/26 02:50:33;;;;;;;14.13;8.85;;;;;;;19.19;85.80;101581.61;1845922;77;20968;-77
2021/07/26 02:53:00;;;;;;;13.13;8.68;;;;;;;19.20;85.77;101578.02;1846018;77;20988;-77
2021/07/26 02:55:29;;;;;;;18.62;8.50;;;;;;;19.23;85.82;101583.01;1846071;77;21409;-77
2021/07/26 02:57:59;;;;;;;11.73;7.35;;;;;;;19.24;85.85;101577.59;1846722;77;21431;-77
2021/07/26 03:00:25;;;;;;;18.02;9.58;;;;;;;19.27;85.87;101581.27;1845962;77;21752;-77
2021/07/26 03:02:53;;;;;;;14.65;9.55;;;;;;;19.29;85.67;101580.67;1845951;77;20983;-77
2021/07/26 03:05:22;;;;;;;18.77;9.83;;;;;;;19.31;85.56;101581.84;1845964;77;21014;-78
2021/07/26 03:07:48;;;;;;;17.52;9.65;;;;;;;19.32;85.44;101577.77;1845868;77;20924;-78
2021/07/26 03:10:15;;;;;;;19.32;9.00;;;;;;;19.33;85.28;101578.61;1845824;77;21723;-78
2021/07/26 03:12:43;;;;;;;18.70;8.78;;;;;;;19.32;85.17;101578.25;1846353;77;21956;-78
2021/07/26 03:15:11;;;;;;;17.95;8.13;;;;;;;19.30;85.13;101580.19;1845970;77;20872;-78
2021/07/26 03:17:38;;;;;;;13.43;9.25;;;;;;;19.28;85.28;101582.95;1846087;77;20994;-78
2021/07/26 03:20:07;;;;;;;13.15;7.90;;;;;;;19.30;85.39;101582.83;1846275;77;20924;-78
2021/07/26 03:22:55;;;;;;;12.55;7.97;;;;;;;19.31;85.34;101577.89;1846211;77;21027;-78
2021/07/26 03:25:22;;;;;;;12.55;7.47;;;;;;;19.31;85.18;101583.16;1846389;77;21110;-77
2021/07/26 03:27:48;;;;;;;12.55;7.80;;;;;;;19.32;85.30;101592.24;1845975;77;21667;-76
2021/07/26 03:30:18;;;;;;;13.13;8.43;;;;;;;19.33;85.43;101595.72;1846047;77;20976;-78
2021/07/26 03:32:46;;;;;;;12.95;8.65;;;;;;;19.35;85.30;101599.03;1846136;77;20972;-77
2021/07/26 03:35:14;;;;;;;20.60;8.98;;;;;;;19.37;85.21;101593.97;1846045;77;21019;-77
2021/07/26 03:37:40;;;;;;;17.17;8.53;;;;;;;19.38;85.10;101595.65;1845872;77;21104;-77
2021/07/26 03:40:08;;;;;;;15.05;8.78;;;;;;;19.38;85.13;101592.18;1845804;77;21606;-76
2021/07/26 03:42:37;;;;;;;12.88;8.03;;;;;;;19.38;85.18;101591.70;1846096;77;21019;-78
2021/07/26 03:45:06;;;;;;;14.47;7.37;;;;;;;19.38;85.36;101590.86;1845456;77;20967;-78
2021/07/26 03:47:33;;;;;;;12.30;8.28;;;;;;;19.39;85.60;101590.74;1846065;77;21028;-77
2021/07/26 03:50:02;;;;;;;12.45;8.55;;;;;;;19.43;85.83;101597.41;1845874;77;20880;-76
2021/07/26 03:52:28;;;;;;;20.50;8.98;;;;;;;19.46;85.77;101600.28;1845799;77;21011;-77
2021/07/26 03:54:56;;;;;;;16.77;10.35;;;;;;;19.50;85.77;101604.28;1846126;77;20985;-77
2021/07/26 03:57:23;;;;;;;17.52;9.58;;;;;;;19.54;85.94;101604.38;1846128;77;20992;-77
2021/07/26 03:59:49;;;;;;;16.77;8.50;;;;;;;19.59;86.06;101605.29;1845949;77;20952;-76
2021/07/26 04:02:16;;;;;;;14.60;8.13;;;;;;;19.62;86.05;101605.85;1846029;77;21782;-75
2021/07/26 04:04:43;;;;;;;14.68;8.35;;;;;;;19.68;86.19;101607.94;1846420;77;20881;-75
2021/07/26 04:07:17;;;;;;;11.15;8.28;;;;;;;19.73;85.92;101614.09;1846933;77;21455;-77
2021/07/26 04:09:42;;;;;;;22.70;15.23;;;;;;;19.79;85.89;101612.22;1850522;77;20885;-77
2021/07/26 04:12:13;;;;;;;15.63;9.55;;;;;;;19.83;85.83;101613.14;1849240;77;20834;-76
2021/07/26 04:14:40;;;;;;;12.43;7.37;;;;;;;19.87;85.53;101605.80;1850324;77;21042;-77
2021/07/26 04:17:04;;;;;;;10.55;6.45;;;;;;;19.92;85.46;101614.11;1849820;77;20829;-78
2021/07/26 04:19:31;;;;;;;10.43;6.85;;;;;;;19.98;85.30;101609.59;1845994;77;21546;-77
2021/07/26 04:21:58;;;;;;;16.55;7.70;;;;;;;20.03;85.18;101613.50;1846160;77;20995;-76
2021/07/26 04:24:25;;;;;;;14.07;7.53;;;;;;;20.11;84.88;101611.95;1845959;77;21067;-78
2021/07/26 04:26:53;;;;;;;16.97;6.45;;;;;;;20.19;84.85;101616.05;1845914;77;21065;-77
2021/07/26 04:29:19;;;;;;;16.95;6.45;;;;;;;20.25;84.56;101613.69;1845895;77;20968;-77
2021/07/26 04:31:50;;;;;;;10.68;5.58;;;;;;;20.34;84.41;101610.72;1845952;77;21043;-77
2021/07/26 04:34:17;;;;;;;15.93;6.35;;;;;;;20.40;83.80;101608.35;1845781;77;20995;-78
2021/07/26 04:36:45;;;;;;;13.85;6.10;;;;;;;20.49;83.34;101614.09;1846136;77;21483;-78
2021/07/26 04:39:13;;;;;;;12.05;6.05;;;;;;;20.57;83.13;101616.02;1845874;77;22030;-78
2021/07/26 04:41:39;;;;;;;13.72;6.42;;;;;;;20.63;82.67;101614.13;1845746;77;20920;-78
2021/07/26 04:44:06;;;;;;;12.90;6.22;;;;;;;20.69;82.24;101613.56;1845773;77;21022;-77
2021/07/26 04:46:33;;;;;;;9.68;5.67;;;;;;;20.77;81.90;101617.61;1845980;77;20925;-77
2021/07/26 04:49:00;;;;;;;11.28;5.60;;;;;;;20.86;81.47;101615.94;1846062;77;21031;-78
2021/07/26 04:51:27;;;;;;;15.58;7.22;;;;;;;20.94;81.09;101622.63;1846051;77;21122;-78
2021/07/26 04:53:54;;;;;;;13.28;7.70;;;;;;;21.01;80.71;101627.20;1846039;77;20990;-77
2021/07/26 04:56:20;;;;;;;17.73;10.20;;;;;;;21.08;80.32;101624.33;1845887;77;20928;-77
2021/07/26 04:58:47;;;;;;;12.03;6.95;;;;;;;21.15;80.13;101618.49;1846130;77;20951;-77
2021/07/26 05:01:14;;;;;;;11.73;6.35;;;;;;;21.20;79.98;101617.06;1846091;77;21487;-78
2021/07/26 05:03:42;;;;;;;8.93;5.92;;;;;;;21.28;79.83;101626.42;1846089;77;21110;-78
2021/07/26 05:06:08;;;;;;;12.13;6.33;;;;;;;21.35;79.63;101626.63;1846164;77;20944;-78
2021/07/26 05:08:35;;;;;;;10.75;6.67;;;;;;;21.41;79.39;101622.91;1846253;77;21474;-78
2021/07/26 05:11:01;;;;;;;14.90;7.25;;;;;;;21.48;78.95;101623.99;1845885;77;20952;-76
2021/07/26 05:13:28;;;;;;;10.78;7.15;;;;;;;21.55;78.54;101625.55;1846167;77;21307;-76
2021/07/26 05:15:54;;;;;;;14.90;7.35;;;;;;;21.64;78.05;101625.48;1845834;77;21175;-78
2021/07/26 05:18:23;;;;;;;12.50;7.30;;;;;;;21.74;77.68;101620.14;1846177;77;20999;-77
2021/07/26 05:20:50;;;;;;;15.13;8.00;;;;;;;21.85;77.39;101618.61;1845832;77;21483;-77
2021/07/26 05:23:17;;;;;;;14.70;7.40;;;;;;;21.95;77.21;101619.37;1846034;77;20984;-77
2021/07/26 05:25:45;;;;;;;12.58;7.25;;;;;;;22.06;76.95;101627.56;1845783;77;21553;-77
2021/07/26 05:28:13;;;;;;;18.82;7.70;;;;;;;22.18;76.44;101630.31;1845665;77;21992;-75
2021/07/26 05:30:40;;;;;;;10.20;7.22;;;;;;;22.29;75.94;101627.44;1845687;77;21605;-78
2021/07/26 05:33:07;;;;;;;11.93;6.85;;;;;;;22.44;75.77;101633.83;1846143;77;20877;-75
2021/07/26 05:35:33;;;;;;;13.35;7.05;;;;;;;22.55;75.53;101634.08;1845802;77;20842;-74
2021/07/26 05:38:04;;;;;;;11.45;5.80;;;;;;;22.71;74.96;101635.54;1845802;77;20929;-77
2021/07/26 05:40:31;;;;;;;15.60;6.67;;;;;;;22.90;72.15;101633.16;1845848;77;21142;-76
2021/07/26 05:42:58;;;;;;;11.05;5.97;;;;;;;23.08;70.61;101633.91;1845717;77;20913;-73
2021/07/26 05:45:25;;;;;;;10.23;5.62;;;;;;;23.18;70.09;101635.45;1846077;77;20984;-75
2021/07/26 05:47:52;;;;;;;10.25;5.20;;;;;;;23.28;68.21;101639.30;1845802;77;21601;-76
2021/07/26 05:50:19;;;;;;;12.43;5.62;;;;;;;23.42;66.45;101643.99;1846135;77;20963;-73
2021/07/26 05:52:49;;;;;;;10.53;5.60;;;;;;;23.53;66.12;101640.23;1845888;77;21080;-72
2021/07/26 05:55:16;;;;;;;8.10;5.15;;;;;;;23.59;66.61;101640.41;1845826;77;21467;-75
2021/07/26 05:57:47;;;;;;;11.45;5.22;;;;;;;23.64;66.74;101646.05;1845816;77;20885;-72
2021/07/26 06:00:24;;;;;;;9.70;5.67;;;;;;;23.72;65.10;101643.92;1845885;77;21526;-83
2021/07/26 06:02:46;;;;;;;8.80;4.87;;;;;;;23.79;64.39;101638.30;1846103;77;20967;-74
2021/07/26 06:05:13;;;;;;;8.95;5.33;;;;;;;23.88;64.42;101642.63;1846000;77;21096;-74
2021/07/26 06:07:41;;;;;;;9.93;4.87;;;;;;;23.94;64.50;101642.45;1845474;77;21022;-72
2021/07/26 06:10:10;;;;;;;6.80;4.75;;;;;;;24.00;64.32;101645.28;1845409;76;20942;-76
2021/07/26 06:12:37;;;;;;;12.40;4.70;;;;;;;24.04;62.34;101647.94;1846023;77;21474;-75
2021/07/26 06:15:06;;;;;;;9.68;5.08;;;;;;;24.12;61.59;101649.81;1846301;77;20936;-77
2021/07/26 06:17:33;;;;;;;8.48;4.42;;;;;;;24.19;61.44;101648.97;1844924;77;21760;-78
2021/07/26 06:20:00;;;;;;;9.43;4.67;;;;;;;24.25;61.19;101646.14;1845459;77;20956;-77
2021/07/26 06:22:27;;;;;;;12.45;5.35;;;;;;;24.30;60.34;101644.33;1846193;77;21441;-76
2021/07/26 06:24:53;;;;;;;7.00;5.28;;;;;;;24.35;59.57;101640.17;1846185;77;21022;-75
2021/07/26 06:27:20;;;;;;;12.18;5.28;;;;;;;24.41;58.12;101646.14;1846317;77;20987;-75
2021/07/26 06:29:52;;;;;;;20.12;6.00;;;;;;;24.49;56.60;101643.98;1846129;77;21148;-76
2021/07/26 06:32:32;;;;;;;14.63;5.75;;;;;;;24.55;56.55;101630.04;1814577;77;21463;-75
2021/07/26 06:35:00;;;;;;;9.25;5.05;;;;;;;24.59;56.85;101636.67;1829676;77;21076;-75
2021/07/26 06:37:27;;;;;;;13.95;5.55;;;;;;;24.64;54.97;101635.17;1844539;77;21479;-77
2021/07/26 06:39:56;;;;;;;8.48;5.65;;;;;;;24.69;53.71;101636.00;1847479;77;20951;-75
2021/07/26 06:42:30;;;;;;;10.82;4.80;;;;;;;24.73;52.86;101635.47;1844683;77;21076;-77
2021/07/26 06:45:08;;;;;;;8.43;5.60;;;;;;;24.81;52.46;101638.62;1843999;77;21036;-75
2021/07/26 06:47:52;;;;;;;10.78;6.30;;;;;;;24.86;53.26;101632.31;1843314;77;20987;-76
2021/07/26 06:50:20;;;;;;;9.38;5.97;;;;;;;24.93;54.36;101635.12;1844213;77;21090;-75
2021/07/26 06:52:47;;;;;;;8.55;5.50;;;;;;;25.02;54.55;101638.08;1844331;77;21242;-75
2021/07/26 06:55:14;;;;;;;11.93;5.47;;;;;;;25.07;54.23;101633.09;1843351;77;21606;-76
2021/07/26 06:57:41;;;;;;;11.83;6.10;;;;;;;25.12;54.03;101628.91;1844155;77;20987;-77
2021/07/26 07:00:09;;;;;;;12.30;5.87;;;;;;;25.19;53.57;101635.20;1844166;77;21051;-75
2021/07/26 07:02:37;;;;;;;9.70;5.87;;;;;;;25.27;54.05;101642.31;1844443;77;21034;-75
2021/07/26 07:05:05;;;;;;;8.45;5.75;;;;;;;25.35;54.01;101640.10;1821715;77;21498;-74
2021/07/26 07:07:32;;;;;;;11.88;5.22;;;;;;;25.43;52.45;101645.39;1844751;77;21780;-76
2021/07/26 07:09:58;;;;;;;15.15;6.35;;;;;;;25.50;52.14;101643.70;1843743;77;21031;-73
2021/07/26 07:12:25;;;;;;;13.22;5.70;;;;;;;25.56;52.63;101651.01;1841628;77;21027;-76
2021/07/26 07:15:04;;;;;;;13.40;5.00;;;;;;;25.63;52.53;101647.95;1841683;77;21770;-76
2021/07/26 07:17:46;;;;;;;11.93;5.12;;;;;;;25.71;51.99;101650.08;1840911;77;20980;-76
2021/07/26 07:20:14;;;;;;;10.03;5.15;;;;;;;25.81;50.29;101650.34;1841498;77;22181;-77
2021/07/26 07:22:41;;;;;;;9.03;5.45;;;;;;;25.85;50.09;101648.47;1841923;77;21581;-77
2021/07/26 07:25:11;;;;;;;8.05;5.10;;;;;;;25.94;50.18;101654.58;1841368;77;21020;-78
2021/07/26 07:27:40;;;;;;;9.75;5.50;;;;;;;26.02;50.46;101661.16;1841400;77;21087;-76
2021/07/26 07:30:07;;;;;;;9.58;5.70;;;;;;;26.07;50.23;101663.61;1841205;77;21046;-76
2021/07/26 07:32:36;;;;;;;13.32;6.00;;;;;;;26.15;50.08;101658.23;1841282;77;21081;-75
2021/07/26 07:35:03;;;;;;;12.35;5.30;;;;;;;26.22;48.28;101663.20;1841985;77;20948;-75
2021/07/26 07:37:29;;;;;;;8.43;6.25;;;;;;;26.30;48.22;101654.31;1841494;77;21007;-77
2021/07/26 07:39:57;;;;;;;8.25;5.12;;;;;;;26.42;47.33;101662.17;1841277;77;21538;-77
2021/07/26 07:42:24;;;;;;;7.37;5.33;;;;;;;26.54;47.63;101655.94;1842298;77;21463;-75
2021/07/26 07:44:50;;;;;;;11.10;5.33;;;;;;;26.63;47.25;101657.50;1842186;77;21115;-75
2021/07/26 07:47:17;;;;;;;10.55;5.03;;;;;;;26.72;46.99;101655.08;1841370;77;21806;-75
2021/07/26 07:49:43;;;;;;;9.65;5.15;;;;;;;26.78;46.45;101656.50;1841676;77;21010;-74
2021/07/26 07:52:11;;;;;;;11.18;5.58;;;;;;;26.85;47.05;101657.13;1841628;77;21542;-75
2021/07/26 07:54:40;;;;;;;8.53;5.42;;;;;;;26.94;46.60;101664.02;1841741;77;21040;-75
2021/07/26 07:57:07;;;;;;;7.92;7.00;;;;;;;27.00;46.74;101664.62;1842262;77;21121;-75
2021/07/26 07:59:34;;;;;;;9.28;6.00;;;;;;;27.07;46.86;101654.88;1842197;77;21004;-76
2021/07/26 08:02:06;;;;;;;11.35;5.28;;;;;;;27.14;45.90;101653.97;1842156;77;21022;-75
2021/07/26 08:04:35;;;;;;;9.15;5.37;;;;;;;27.19;45.80;101653.40;1842521;77;21020;-74
2021/07/26 08:07:03;;;;;;;8.20;5.80;;;;;;;27.25;46.00;101651.34;1842023;77;21011;-75
2021/07/26 08:09:29;;;;;;;8.35;5.85;;;;;;;27.32;45.27;101650.40;1842044;77;21066;-78
2021/07/26 08:11:56;;;;;;;10.13;5.33;;;;;;;27.41;45.64;101653.77;1835524;76;20912;-75
2021/07/26 08:14:23;;;;;;;12.23;5.72;;;;;;;27.48;45.39;101650.72;1833146;77;21095;-75
2021/07/26 08:16:50;;;;;;;12.88;5.08;;;;;;;27.55;45.13;101658.29;1834112;78;21062;-76
2021/07/26 08:19:18;;;;;;;13.10;6.50;;;;;;;27.58;45.52;101655.25;1833247;78;21685;-77
2021/07/26 08:21:47;;;;;;;9.20;5.70;;;;;;;27.65;46.80;101657.48;1834423;77;21147;-77
2021/07/26 08:24:14;;;;;;;10.08;5.95;;;;;;;27.71;48.22;101658.56;1833482;77;21011;-74
2021/07/26 08:26:41;;;;;;;12.37;5.62;;;;;;;27.77;47.91;101651.14;1834384;78;21756;-79
2021/07/26 08:29:08;;;;;;;11.88;6.42;;;;;;;27.85;47.59;101656.37;1834373;78;20909;-79
2021/07/26 08:31:35;;;;;;;9.38;6.20;;;;;;;27.94;46.17;101656.55;1833645;78;21048;-77
2021/07/26 08:34:02;;;;;;;12.35;5.97;;;;;;;28.01;44.79;101655.29;1834302;78;20964;-75
2021/07/26 08:36:30;;;;;;;12.78;6.80;;;;;;;28.07;44.76;101653.22;1833862;77;21468;-80
2021/07/26 08:38:57;;;;;;;11.12;7.30;;;;;;;28.12;44.08;101644.94;1834522;78;21621;-77
2021/07/26 08:41:24;;;;;;;8.38;6.28;;;;;;;28.18;44.62;101644.67;1812328;77;21091;-79
2021/07/26 08:43:50;;;;;;;8.43;5.20;;;;;;;28.23;42.61;101645.77;1834109;78;21072;-73
2021/07/26 08:46:18;;;;;;;7.72;5.17;;;;;;;28.27;45.26;101639.55;1834068;78;21757;-83
2021/07/26 08:48:47;;;;;;;10.28;5.30;;;;;;;28.33;44.82;101640.10;1833658;78;20972;-80
2021/07/26 08:51:19;;;;;;;12.40;5.42;;;;;;;28.48;45.12;101636.82;1833805;78;21023;-81
2021/07/26 08:53:48;;;;;;;14.75;6.83;;;;;;;28.55;43.89;101632.36;1833086;78;21087;-76
2021/07/26 08:56:19;;;;;;;12.75;6.83;;;;;;;28.51;44.15;101639.60;1833044;78;21063;-78
2021/07/26 08:58:46;;;;;;;13.22;6.40;;;;;;;28.55;43.61;101638.20;1833443;78;21765;-76
2021/07/26 09:01:14;;;;;;;7.30;5.30;;;;;;;28.62;42.13;101635.88;1833526;78;20889;-75
2021/07/26 09:03:44;;;;;;;8.20;4.90;;;;;;;28.67;41.70;101625.98;1833406;78;21352;-75
2021/07/26 09:06:12;;;;;;;8.90;5.15;;;;;;;28.74;41.50;101629.02;1833191;78;20988;-76
2021/07/26 09:08:40;;;;;;;11.40;5.00;;;;;;;28.85;42.06;101623.61;1833595;78;21534;-74
2021/07/26 09:11:08;;;;;;;6.45;4.40;;;;;;;28.95;42.47;101632.60;1837089;76;21569;-76
2021/07/26 09:13:44;;;;;;;5.87;4.45;;;;;;;28.94;41.03;101622.95;1844616;77;21022;-75
2021/07/26 09:16:22;;;;;;;7.65;4.78;;;;;;;28.95;40.41;101620.58;1844854;77;20939;-81
2021/07/26 09:19:10;;;;;;;6.22;5.17;;;;;;;28.98;40.27;101621.01;1844885;77;20951;-75
2021/07/26 09:21:54;;;;;;;9.90;5.05;;;;;;;28.93;40.92;101622.12;1844579;77;21081;-82
2021/07/26 09:24:27;;;;;;;9.43;5.22;;;;;;;29.03;41.21;101612.41;1844492;77;21077;-75
2021/07/26 09:26:57;;;;;;;11.93;4.90;;;;;;;29.20;40.94;101617.70;1844960;77;20962;-76
2021/07/26 09:29:49;;;;;;;9.23;4.80;;;;;;;29.34;39.59;101622.12;1842902;77;21582;-74
2021/07/26 09:32:15;;;;;;;6.23;5.13;;;;;;;29.43;38.07;101616.07;1779589;80;21158;-74
2021/07/26 09:34:42;;;;;;;8.88;4.90;;;;;;;29.54;39.61;101611.48;1780799;80;20907;-73
2021/07/26 09:37:17;;;;;;;7.22;4.62;;;;;;;29.69;40.60;101615.63;1745313;80;21797;-79
2021/07/26 09:39:43;;;;;;;8.30;5.30;;;;;;;29.81;40.30;101614.50;1810745;78;21595;-75
2021/07/26 09:42:26;;;;;;;9.03;5.08;;;;;;;29.92;40.80;101609.92;1810591;79;20986;-74
2021/07/26 09:44:54;;;;;;;8.63;4.95;;;;;;;30.09;40.47;101610.34;1809790;79;21013;-76
2021/07/26 09:47:21;;;;;;;6.70;4.83;;;;;;;30.22;38.99;101605.79;1810145;78;21132;-74
2021/07/26 09:49:49;;;;;;;13.08;5.05;;;;;;;30.30;38.87;101599.41;1810095;79;21078;-76
2021/07/26 09:52:21;;;;;;;5.30;4.20;;;;;;;30.27;37.17;101595.81;1810079;79;20990;-74
2021/07/26 09:54:48;;;;;;;7.58;4.53;;;;;;;30.26;36.29;101594.98;1809801;79;20982;-72
2021/07/26 09:57:20;;;;;;;5.60;4.45;;;;;;;30.33;33.36;101598.99;1809976;79;21093;-72
2021/07/26 09:59:48;;;;;;;6.58;4.70;;;;;;;30.41;32.48;101591.59;1810122;79;21567;-74
2021/07/26 10:02:20;;;;;;;6.25;4.50;;;;;;;30.54;33.10;101594.75;1810490;79;21121;-75
2021/07/26 10:04:48;;;;;;;7.67;4.20;;;;;;;31.05;31.46;101585.44;1809684;79;21314;-75
2021/07/26 10:07:17;;;;;;;9.45;4.62;;;;;;;32.33;29.10;101593.56;1810487;78;20994;-74
2021/07/26 10:09:45;;;;;;;6.25;4.55;;;;;;;33.53;28.31;101595.47;1811205;79;20935;-74
2021/07/26 10:12:19;;;;;;;8.20;4.40;;;;;;;34.78;26.28;101594.16;1810903;78;21036;-77
2021/07/26 10:14:49;;;;;;;5.87;4.55;;;;;;;35.69;25.07;101589.72;1810136;79;21568;-78
2021/07/26 10:17:16;;;;;;;10.75;5.42;;;;;;;36.20;26.69;101588.12;1810112;78;21089;-75
2021/07/26 10:19:44;;;;;;;7.17;5.17;;;;;;;36.11;27.76;101589.62;1810403;79;20988;-79
2021/07/26 10:22:14;;;;;;;6.17;4.90;;;;;;;36.47;26.75;101586.89;1810288;78;21790;-78
2021/07/26 10:24:50;;;;;;;10.08;4.90;;;;;;;36.22;27.17;101585.98;1810723;78;21089;-76
2021/07/26 10:27:28;;;;;;;11.05;4.58;;;;;;;36.28;27.26;101583.63;1810314;79;21114;-76
2021/07/26 10:29:56;;;;;;;10.28;5.58;;;;;;;36.29;27.08;101589.33;1810376;79;21014;-76
2021/07/26 10:32:33;;;;;;;7.78;4.37;;;;;;;35.90;28.02;101580.34;1801309;78;21570;-76
2021/07/26 10:35:06;;;;;;;6.15;4.33;;;;;;;35.74;27.63;101579.80;1799704;79;21575;-72
2021/07/26 10:37:46;;;;;;;7.42;4.67;;;;;;;35.35;27.97;101576.16;1796334;79;21037;-75
2021/07/26 10:40:30;;;;;;;11.20;4.05;;;;;;;34.69;28.07;101578.06;1800438;79;21114;-75
2021/07/26 10:43:03;;;;;;;5.75;3.95;;;;;;;34.13;28.69;101580.56;1799680;79;20958;-74
2021/07/26 10:45:39;;;;;;;8.25;3.90;;;;;;;33.65;28.73;101572.63;1800252;79;20930;-75
2021/07/26 10:48:30;;;;;;;8.78;4.22;;;;;;;33.29;29.21;101570.34;1799934;79;20982;-74
2021/07/26 10:51:00;;;;;;;6.60;4.45;;;;;;;32.75;29.01;101573.91;1799981;79;21006;-78
2021/07/26 10:53:39;;;;;;;6.20;3.70;;;;;;;32.17;30.06;101575.33;1799796;79;21547;-80
2021/07/26 10:56:09;;;;;;;7.15;4.80;;;;;;;31.84;30.89;101577.78;1800023;79;20977;-81
2021/07/26 10:58:48;;;;;;;10.50;3.75;;;;;;;31.61;31.11;101568.14;1799785;79;20945;-76
2021/07/26 11:01:27;;;;;;;8.38;5.05;;;;;;;31.45;30.29;101573.48;1799817;79;21615;-76
2021/07/26 11:03:56;;;;;;;8.23;4.72;;;;;;;31.36;31.17;101580.14;1799695;79;21100;-74
2021/07/26 11:06:43;;;;;;;6.42;5.65;;;;;;;31.50;30.68;101575.52;1799924;79;21128;-76
2021/07/26 11:09:26;;;;;;;6.05;4.00;;;;;;;31.47;30.23;101576.75;1800140;79;20989;-83
2021/07/26 11:11:53;;;;;;;7.28;3.42;;;;;;;31.42;30.58;101576.59;1799740;78;21037;-81
2021/07/26 11:14:20;;;;;;;7.67;4.10;;;;;;;31.38;29.49;101565.98;1799426;79;21524;-78
2021/07/26 11:17:07;;;;;;;6.40;3.45;;;;;;;31.46;30.05;101564.91;1800202;79;21089;-75
2021/07/26 11:19:55;;;;;;;8.05;4.30;;;;;;;31.47;29.78;101567.36;1799834;79;21154;-80
2021/07/26 11:22:29;;;;;;;5.55;3.45;;;;;;;31.43;30.05;101568.83;1798118;79;21021;-77
2021/07/26 11:25:09;;;;;;;6.55;3.87;;;;;;;31.49;28.72;101575.22;1799594;78;21024;-82
2021/07/26 11:27:41;;;;;;;5.03;3.33;;;;;;;31.38;29.65;101574.55;1800917;79;20973;-79
2021/07/26 11:30:10;;;;;;;10.70;4.42;;;;;;;31.30;28.66;101569.45;1800368;78;21025;-81
2021/07/26 11:32:37;;;;;;;5.08;4.10;;;;;;;31.15;27.94;101564.36;1804974;78;21122;-77